createdAt,value
2019-04-01T00:08:51.924Z,1022.5
2019-04-01T00:19:05.743Z,1022.4
2019-04-01T00:29:17.023Z,1022.5
2019-04-01T00:39:29.689Z,1022.4
2019-04-01T00:49:43.574Z,1022.4
2019-04-01T00:59:57.823Z,1022.4
2019-04-01T01:10:10.166Z,1022.2
2019-04-01T01:20:24.322Z,1022.1
2019-04-01T01:30:38.175Z,1022.1
2019-04-01T01:40:51.906Z,1022.0
2019-04-01T01:52:06.880Z,1022.0
2019-04-01T02:02:20.547Z,1021.9
2019-04-01T02:12:34.862Z,1021.7
2019-04-01T02:22:48.986Z,1021.6
2019-04-01T02:33:02.566Z,1021.6
2019-04-01T02:43:49.789Z,1021.6
2019-04-01T02:54:01.545Z,1021.5
2019-04-01T03:04:13.658Z,1021.4
2019-04-01T03:14:59.555Z,1021.5
2019-04-01T03:25:10.841Z,1021.3
2019-04-01T03:35:57.422Z,1021.3
2019-04-01T03:46:12.109Z,1021.3
2019-04-01T03:57:01.786Z,1021.2
2019-04-01T04:07:48.736Z,1021.1
2019-04-01T04:18:40.127Z,1021.2
2019-04-01T04:29:25.237Z,1021.1
2019-04-01T04:40:11.887Z,1021.0
2019-04-01T04:51:33.916Z,1021.2
2019-04-01T05:01:45.920Z,1021.1
2019-04-01T05:12:48.434Z,1021.2
2019-04-01T05:23:00.866Z,1021.2
2019-04-01T05:33:15.147Z,1021.2
2019-04-01T05:44:02.123Z,1021.3
2019-04-01T05:54:47.398Z,1021.4
2019-04-01T06:04:59.210Z,1021.5
2019-04-01T06:15:12.706Z,1021.5
2019-04-01T06:25:27.497Z,1021.4
2019-04-01T06:35:41.421Z,1021.4
2019-04-01T06:45:55.878Z,1021.3
2019-04-01T06:56:41.350Z,1021.4
2019-04-01T07:06:55.494Z,1021.5
2019-04-01T07:17:42.561Z,1021.6
2019-04-01T07:28:46.988Z,1021.6
2019-04-01T07:39:35.678Z,1021.6
2019-04-01T07:49:50.265Z,1021.3
2019-04-01T08:00:55.099Z,1021.0
2019-04-01T08:11:49.866Z,1020.9
2019-04-01T08:22:43.335Z,1020.6
2019-04-01T08:33:47.478Z,1020.5
2019-04-01T08:43:58.478Z,1020.4
2019-04-01T08:54:22.472Z,1020.3
2019-04-01T09:05:20.073Z,1020.0
2019-04-01T09:16:14.707Z,1020.0
2019-04-01T09:26:32.974Z,1019.9
2019-04-01T09:37:23.513Z,1019.7
2019-04-01T09:47:38.035Z,1019.3
2019-04-01T09:58:28.751Z,1019.1
2019-04-01T10:08:43.653Z,1019.0
2019-04-01T10:19:37.234Z,1018.7
2019-04-01T10:30:26.357Z,1018.6
2019-04-01T10:41:13.990Z,1018.4
2019-04-01T10:52:08.702Z,1018.1
2019-04-01T11:02:57.272Z,1018.0
2019-04-01T11:13:15.225Z,1017.9
2019-04-01T11:23:34.147Z,1017.7
2019-04-01T11:34:25.034Z,1017.7
2019-04-01T11:45:14.886Z,1017.6
2019-04-01T11:55:34.547Z,1017.6
2019-04-01T12:05:52.700Z,1017.6
2019-04-01T12:16:09.024Z,1017.6
2019-04-01T12:26:27.641Z,1017.4
2019-04-01T12:37:16.431Z,1017.3
2019-04-01T12:47:34.324Z,1017.1
2019-04-01T12:58:25.199Z,1016.9
2019-04-01T13:08:36.118Z,1016.9
2019-04-01T13:21:26.631Z,1016.8
2019-04-01T13:32:16.288Z,1016.8
2019-04-01T13:43:07.239Z,1016.6
2019-04-01T13:54:08.083Z,1016.3
2019-04-01T14:04:17.189Z,1016.1
2019-04-01T14:15:10.541Z,1015.5
2019-04-01T14:42:21.401Z,1014.8
2019-04-01T14:52:35.127Z,1015.7
2019-04-01T15:03:27.830Z,1015.8
2019-04-01T15:13:43.325Z,1017.0
2019-04-01T15:24:34.425Z,1015.1
2019-04-01T15:34:48.873Z,1014.1
2019-04-01T15:45:03.243Z,1013.8
2019-04-01T15:55:22.105Z,1013.5
2019-04-01T16:06:07.452Z,1013.4
2019-04-01T16:16:23.523Z,1013.3
2019-04-01T16:27:13.283Z,1013.2
2019-04-01T16:38:22.222Z,1013.2
2019-04-01T16:49:11.550Z,1013.2
2019-04-01T16:59:58.830Z,1013.1
2019-04-01T17:10:48.990Z,1013.1
2019-04-01T17:21:34.455Z,1013.1
2019-04-01T17:32:30.747Z,1013.0
2019-04-01T17:42:45.450Z,1012.9
2019-04-01T17:53:38.136Z,1013.0
2019-04-01T18:04:25.815Z,1013.0
2019-04-01T18:16:01.361Z,1012.9
2019-04-01T18:26:35.008Z,1013.0
2019-04-01T18:39:48.097Z,1013.1
2019-04-01T19:06:14.008Z,1013.0
2019-04-01T19:18:32.356Z,1012.9
2019-04-01T19:29:04.077Z,1012.9
2019-04-01T19:40:20.520Z,1012.8
2019-04-01T19:50:35.447Z,1012.8
2019-04-01T20:00:49.380Z,1012.6
2019-04-01T20:11:00.462Z,1012.5
2019-04-01T20:21:54.431Z,1012.5
2019-04-01T20:32:16.756Z,1012.3
2019-04-01T20:42:57.667Z,1012.2
2019-04-01T20:53:12.078Z,1012.1
2019-04-01T21:03:26.249Z,1012.0
2019-04-01T21:13:42.819Z,1011.8
2019-04-01T21:23:59.813Z,1011.7
2019-04-01T21:34:44.433Z,1011.6
2019-04-01T21:44:58.934Z,1011.4
2019-04-01T21:55:18.609Z,1011.3
2019-04-01T22:06:03.699Z,1011.3
2019-04-01T22:16:51.665Z,1011.1
2019-04-01T22:27:39.307Z,1011.1
2019-04-01T22:37:53.777Z,1011.1
2019-04-01T22:48:07.663Z,1010.9
2019-04-01T22:58:22.605Z,1010.8
2019-04-01T23:08:36.262Z,1010.7
2019-04-01T23:19:24.377Z,1010.6
2019-04-01T23:29:39.556Z,1010.5
2019-04-01T23:39:53.809Z,1010.4
2019-04-01T23:50:09.040Z,1010.3
